Time;durP1;ratioP1;P1;durP2;ratioP2;P2;SDS_P1;SDS_P2;PMS_P1;PMS_P2;Temp;Humidity;BMP_temperature;BMP_pressure;BME280_temperature;BME280_humidity;BME280_pressure;Samples;Min_cycle;Max_cycle;Signal;HPM_P1;HPM_P2
2022/10/09 00:00:51;;;;;;;;;;;;;;;10.58;76.64;100516.56;6150313;23;1941;-78
2022/10/09 00:03:18;;;;;;;;;;;;;;;10.49;76.69;100509.00;6150878;23;998;-78
2022/10/09 00:05:45;;;;;;;;;;;;;;;10.62;76.41;100516.97;6150458;23;1029;-78
2022/10/09 00:08:11;;;;;;;;;;;;;;;10.57;76.38;100522.19;6150160;23;1018;-78
2022/10/09 00:10:38;;;;;;;;;;;;;;;10.59;76.63;100523.63;6151301;23;1002;-78
2022/10/09 00:13:04;;;;;;;;;;;;;;;10.55;76.56;100530.47;6152362;23;967;-78
2022/10/09 00:15:31;;;;;;;;;;;;;;;10.52;76.63;100522.84;6123970;23;1250;-78
2022/10/09 00:17:57;;;;;;;;;;;;;;;10.45;76.74;100527.47;6151392;23;1228;-78
2022/10/09 00:20:24;;;;;;;;;;;;;;;10.44;76.59;100532.03;6151137;23;1897;-78
2022/10/09 00:22:50;;;;;;;;;;;;;;;10.59;76.20;100536.25;6125253;23;1387;-78
2022/10/09 00:25:17;;;;;;;;;;;;;;;10.43;76.62;100533.06;6150164;23;979;-78
2022/10/09 00:27:43;;;;;;;;;;;;;;;10.38;76.75;100530.22;6126126;23;1246;-78
2022/10/09 00:30:10;;;;;;;;;;;;;;;10.42;76.55;100544.88;6151430;23;979;-78
2022/10/09 00:32:36;;;;;;;;;;;;;;;10.43;76.73;100538.44;6149441;23;947;-78
2022/10/09 00:35:03;;;;;;;;;;;;;;;10.34;76.69;100539.75;6124960;23;1260;-78
2022/10/09 00:37:30;;;;;;;;;;;;;;;10.40;76.50;100549.66;6151280;23;974;-78
2022/10/09 00:39:56;;;;;;;;;;;;;;;10.42;76.51;100550.25;6148941;23;1889;-78
2022/10/09 00:42:25;;;;;;;;;;;;;;;10.37;76.64;100546.56;6150893;23;1006;-78
2022/10/09 00:44:51;;;;;;;;;;;;;;;10.35;76.62;100552.19;6124640;23;1265;-78
2022/10/09 00:47:18;;;;;;;;;;;;;;;10.37;76.92;100550.09;6150837;23;962;-78
2022/10/09 00:49:44;;;;;;;;;;;;;;;10.34;76.82;100549.69;6124209;23;1019;-78
2022/10/09 00:52:11;;;;;;;;;;;;;;;10.29;76.85;100555.72;6123996;23;1324;-78
2022/10/09 00:54:37;;;;;;;;;;;;;;;10.30;76.81;100568.16;6149533;23;974;-78
2022/10/09 00:57:04;;;;;;;;;;;;;;;10.27;76.95;100570.47;6150754;23;958;-78
2022/10/09 00:59:30;;;;;;;;;;;;;;;10.24;76.74;100564.44;6152558;23;1014;-78
2022/10/09 01:01:57;;;;;;;;;;;;;;;10.27;76.80;100568.59;6151196;23;1897;-78
2022/10/09 01:04:23;;;;;;;;;;;;;;;10.24;76.90;100569.00;6151207;23;970;-79
2022/10/09 01:06:50;;;;;;;;;;;;;;;10.23;76.83;100573.56;6149546;23;1010;-78
2022/10/09 01:09:16;;;;;;;;;;;;;;;10.25;76.81;100578.72;6123566;23;1477;-79
2022/10/09 01:11:43;;;;;;;;;;;;;;;10.22;76.79;100587.22;6147975;23;1009;-78
2022/10/09 01:14:09;;;;;;;;;;;;;;;10.19;76.78;100588.47;6152506;23;1009;-78
2022/10/09 01:16:36;;;;;;;;;;;;;;;10.19;76.94;100584.97;6150056;23;1002;-78
2022/10/09 01:19:02;;;;;;;;;;;;;;;10.16;76.89;100588.91;6148950;23;1279;-78
2022/10/09 01:21:29;;;;;;;;;;;;;;;10.16;76.79;100591.59;6150613;23;1966;-78
2022/10/09 01:23:56;;;;;;;;;;;;;;;10.16;76.74;100601.56;6150554;23;966;-78
2022/10/09 01:26:22;;;;;;;;;;;;;;;10.21;76.73;100605.25;6123690;23;1349;-78
2022/10/09 01:28:49;;;;;;;;;;;;;;;10.13;76.94;100604.69;6152619;23;844;-78
2022/10/09 01:31:16;;;;;;;;;;;;;;;10.15;76.73;100602.59;6124183;23;1137;-78
2022/10/09 01:33:42;;;;;;;;;;;;;;;10.11;76.74;100595.97;6122833;23;951;-78
2022/10/09 01:36:09;;;;;;;;;;;;;;;10.10;76.84;100608.63;6124728;23;958;-78
2022/10/09 01:38:35;;;;;;;;;;;;;;;10.08;76.97;100608.00;6149317;23;967;-78
2022/10/09 01:41:02;;;;;;;;;;;;;;;10.09;76.88;100616.88;6150797;23;1939;-78
2022/10/09 01:43:28;;;;;;;;;;;;;;;10.09;76.87;100617.75;6124098;23;1241;-78
2022/10/09 01:45:55;;;;;;;;;;;;;;;10.08;76.80;100629.53;6123823;23;1023;-78
2022/10/09 01:48:22;;;;;;;;;;;;;;;10.05;76.72;100632.66;6149269;23;975;-78
2022/10/09 01:50:50;;;;;;;;;;;;;;;10.05;76.67;100634.53;6124237;23;975;-78
2022/10/09 01:53:16;;;;;;;;;;;;;;;10.05;76.61;100634.53;6149511;23;1039;-78
2022/10/09 01:55:43;;;;;;;;;;;;;;;10.07;76.50;100633.28;6122766;23;1152;-78
2022/10/09 01:58:09;;;;;;;;;;;;;;;10.06;76.75;100631.63;6125563;23;991;-78
2022/10/09 02:00:36;;;;;;;;;;;;;;;10.06;76.58;100636.16;6125365;23;1943;-78
2022/10/09 02:03:02;;;;;;;;;;;;;;;10.04;76.58;100633.69;6150756;23;979;-78
2022/10/09 02:05:29;;;;;;;;;;;;;;;10.00;76.61;100646.75;6123422;23;1228;-78
2022/10/09 02:07:55;;;;;;;;;;;;;;;10.01;76.68;100642.19;6151887;23;999;-78
2022/10/09 02:10:22;;;;;;;;;;;;;;;9.98;76.66;100643.44;6151639;23;1006;-78
2022/10/09 02:12:48;;;;;;;;;;;;;;;10.00;76.46;100637.88;6149823;23;958;-78
2022/10/09 02:15:15;;;;;;;;;;;;;;;9.98;76.64;100639.94;6151168;23;983;-78
2022/10/09 02:17:42;;;;;;;;;;;;;;;9.97;76.53;100639.13;6126868;23;1543;-78
2022/10/09 02:20:08;;;;;;;;;;;;;;;9.93;76.75;100634.38;6152344;23;1944;-78
2022/10/09 02:22:35;;;;;;;;;;;;;;;9.96;76.66;100642.00;6127053;23;974;-78
2022/10/09 02:25:01;;;;;;;;;;;;;;;9.94;76.62;100649.44;6151741;23;979;-78
2022/10/09 02:27:28;;;;;;;;;;;;;;;9.92;76.34;100654.25;6126322;23;1176;-78
2022/10/09 02:29:54;;;;;;;;;;;;;;;9.96;76.43;100650.06;6155577;23;975;-78
2022/10/09 02:32:21;;;;;;;;;;;;;;;9.94;76.37;100654.84;6126410;23;1248;-78
2022/10/09 02:34:48;;;;;;;;;;;;;;;9.93;76.52;100653.19;6152824;23;978;-77
2022/10/09 02:37:14;;;;;;;;;;;;;;;9.89;76.49;100657.38;6152886;23;951;-77
2022/10/09 02:39:42;;;;;;;;;;;;;;;9.92;76.58;100665.81;6150928;23;1025;-78
2022/10/09 02:42:08;;;;;;;;;;;;;;;9.87;76.33;100671.00;6123723;23;1905;-78
2022/10/09 02:44:35;;;;;;;;;;;;;;;9.92;76.28;100656.94;6148747;23;994;-77
2022/10/09 02:47:02;;;;;;;;;;;;;;;9.88;76.54;100677.22;6150356;23;995;-78
2022/10/09 02:49:28;;;;;;;;;;;;;;;9.86;76.38;100676.63;6149236;23;986;-77
2022/10/09 02:51:55;;;;;;;;;;;;;;;9.86;76.25;100676.63;6122733;23;904;-77
2022/10/09 02:54:21;;;;;;;;;;;;;;;9.86;76.17;100664.00;6149152;23;1046;-77
2022/10/09 02:56:48;;;;;;;;;;;;;;;9.96;76.08;100667.03;6148956;23;816;-77
2022/10/09 02:59:14;;;;;;;;;;;;;;;9.83;76.43;100672.47;6149365;23;931;-77
2022/10/09 03:01:41;;;;;;;;;;;;;;;9.81;76.39;100668.34;6123354;23;1940;-77
2022/10/09 03:04:07;;;;;;;;;;;;;;;9.80;76.21;100670.22;6150610;23;930;-78
2022/10/09 03:06:35;;;;;;;;;;;;;;;9.77;76.36;100663.41;6125650;23;1065;-78
2022/10/09 03:09:02;;;;;;;;;;;;;;;9.75;76.34;100667.31;6152942;23;950;-78
2022/10/09 03:11:28;;;;;;;;;;;;;;;9.73;76.22;100670.22;6153850;23;1079;-77
2022/10/09 03:13:55;;;;;;;;;;;;;;;9.72;76.53;100663.19;6153925;23;954;-77
2022/10/09 03:16:21;;;;;;;;;;;;;;;9.72;76.59;100660.50;6127323;23;884;-78
2022/10/09 03:18:48;;;;;;;;;;;;;;;9.78;76.25;100662.34;6153647;23;1259;-78
2022/10/09 03:21:14;;;;;;;;;;;;;;;9.72;76.47;100667.75;6127652;23;1938;-77
2022/10/09 03:23:40;;;;;;;;;;;;;;;9.74;76.25;100654.94;6151046;23;923;-77
2022/10/09 03:26:07;;;;;;;;;;;;;;;9.71;76.33;100658.88;6125235;23;1470;-78
2022/10/09 03:28:34;;;;;;;;;;;;;;;9.74;76.09;100654.94;6150392;23;920;-78
2022/10/09 03:31:00;;;;;;;;;;;;;;;9.71;76.32;100660.72;6150989;23;966;-77
2022/10/09 03:33:27;;;;;;;;;;;;;;;9.71;75.97;100655.34;6152259;23;1010;-77
2022/10/09 03:35:53;;;;;;;;;;;;;;;9.71;76.10;100658.03;6126200;23;1579;-77
2022/10/09 03:38:20;;;;;;;;;;;;;;;9.69;76.17;100654.72;6149449;23;963;-77
2022/10/09 03:40:46;;;;;;;;;;;;;;;9.68;76.09;100648.53;6151163;23;1921;-78
2022/10/09 03:43:13;;;;;;;;;;;;;;;9.63;76.07;100651.00;6124566;23;852;-77
2022/10/09 03:45:39;;;;;;;;;;;;;;;9.62;76.29;100653.91;6124045;23;848;-78
2022/10/09 03:48:06;;;;;;;;;;;;;;;9.61;76.35;100665.72;6151194;23;860;-77
2022/10/09 03:50:32;;;;;;;;;;;;;;;9.65;75.97;100661.56;6152647;23;832;-77
2022/10/09 03:53:01;;;;;;;;;;;;;;;9.58;76.14;100669.63;6124202;23;829;-77
2022/10/09 03:55:27;;;;;;;;;;;;;;;9.62;76.17;100667.34;6150574;23;737;-78
2022/10/09 03:57:54;;;;;;;;;;;;;;;9.58;76.10;100666.94;6125449;23;1363;-78
2022/10/09 04:00:20;;;;;;;;;;;;;;;9.59;76.13;100673.16;6124748;23;1439;-77
2022/10/09 04:02:47;;;;;;;;;;;;;;;9.55;76.10;100672.75;6150408;23;1933;-77
2022/10/09 04:05:13;;;;;;;;;;;;;;;9.55;76.06;100673.56;6125633;23;1343;-77
2022/10/09 04:07:40;;;;;;;;;;;;;;;9.57;76.19;100669.88;6124711;23;1208;-78
2022/10/09 04:10:06;;;;;;;;;;;;;;;9.54;76.18;100671.09;6151229;23;839;-77
2022/10/09 04:12:33;;;;;;;;;;;;;;;9.51;76.37;100674.22;6150944;23;812;-77
2022/10/09 04:14:59;;;;;;;;;;;;;;;9.61;75.72;100681.84;6150550;23;1018;-77
2022/10/09 04:17:26;;;;;;;;;;;;;;;9.51;76.02;100680.41;6123859;23;916;-77
2022/10/09 04:19:52;;;;;;;;;;;;;;;9.47;76.21;100684.56;6152584;23;1194;-77
2022/10/09 04:22:19;;;;;;;;;;;;;;;9.52;76.06;100686.63;6149934;23;1959;-77
2022/10/09 04:24:45;;;;;;;;;;;;;;;9.48;76.01;100688.06;6150615;23;831;-78
2022/10/09 04:27:12;;;;;;;;;;;;;;;9.50;75.91;100692.22;6151595;23;765;-77
2022/10/09 04:29:39;;;;;;;;;;;;;;;9.46;76.09;100690.97;6150957;23;827;-77
2022/10/09 04:32:05;;;;;;;;;;;;;;;9.47;76.10;100694.47;6123657;23;1184;-78
2022/10/09 04:34:32;;;;;;;;;;;;;;;9.42;76.03;100696.97;6125394;23;1181;-77
2022/10/09 04:36:58;;;;;;;;;;;;;;;9.41;76.11;100698.84;6125289;23;967;-77
2022/10/09 04:39:25;;;;;;;;;;;;;;;9.43;76.27;100696.75;6124635;23;848;-77
2022/10/09 04:41:51;;;;;;;;;;;;;;;9.44;76.00;100690.38;6124231;23;1890;-77
2022/10/09 04:44:18;;;;;;;;;;;;;;;9.39;76.13;100697.41;6148580;23;753;-77
2022/10/09 04:46:44;;;;;;;;;;;;;;;9.41;75.97;100698.84;6149868;23;958;-78
2022/10/09 04:49:11;;;;;;;;;;;;;;;9.39;75.98;100695.53;6123964;23;1173;-77
2022/10/09 04:51:37;;;;;;;;;;;;;;;9.36;76.01;100701.31;6151210;23;788;-77
2022/10/09 04:54:04;;;;;;;;;;;;;;;9.38;75.86;100704.59;6124048;23;835;-77
2022/10/09 04:56:30;;;;;;;;;;;;;;;9.33;76.01;100713.31;6151783;23;781;-77
2022/10/09 04:58:57;;;;;;;;;;;;;;;9.35;76.15;100713.09;6151349;23;844;-77
2022/10/09 05:01:23;;;;;;;;;;;;;;;9.33;76.15;100716.00;6123083;23;1901;-77
2022/10/09 05:03:50;;;;;;;;;;;;;;;9.32;75.93;100711.66;6150375;23;856;-77
2022/10/09 05:06:17;;;;;;;;;;;;;;;9.29;76.24;100714.78;6152296;23;835;-77
2022/10/09 05:08:43;;;;;;;;;;;;;;;9.29;76.02;100713.94;6149168;23;804;-77
2022/10/09 05:11:10;;;;;;;;;;;;;;;9.28;76.25;100707.72;6128087;23;863;-77
2022/10/09 05:13:36;;;;;;;;;;;;;;;9.30;75.88;100713.72;6153255;23;805;-77
2022/10/09 05:16:03;;;;;;;;;;;;;;;9.29;75.93;100708.53;6153795;23;1041;-78
2022/10/09 05:18:29;;;;;;;;;;;;;;;9.26;76.05;100709.78;6153334;23;1274;-77
2022/10/09 05:20:56;;;;;;;;;;;;;;;9.26;76.19;100715.16;6149444;23;1897;-77
2022/10/09 05:23:22;;;;;;;;;;;;;;;9.25;75.98;100708.16;6150703;23;824;-77
2022/10/09 05:25:49;;;;;;;;;;;;;;;9.23;76.11;100712.06;6152971;23;789;-77
2022/10/09 05:28:15;;;;;;;;;;;;;;;9.21;75.69;100701.53;6154532;23;849;-77
2022/10/09 05:30:42;;;;;;;;;;;;;;;9.22;75.87;100696.97;6152898;23;951;-77
2022/10/09 05:33:08;;;;;;;;;;;;;;;9.26;76.01;100703.59;6153523;23;811;-77
2022/10/09 05:35:35;;;;;;;;;;;;;;;9.20;76.12;100707.09;6128074;23;860;-77
2022/10/09 05:38:02;;;;;;;;;;;;;;;9.19;75.86;100711.66;6128425;23;1185;-77
2022/10/09 05:40:28;;;;;;;;;;;;;;;9.22;75.68;100716.63;6154630;23;785;-77
2022/10/09 05:42:55;;;;;;;;;;;;;;;9.18;75.79;100709.19;6153261;23;2021;-77
2022/10/09 05:45:21;;;;;;;;;;;;;;;9.17;76.01;100707.53;6151807;23;813;-77
2022/10/09 05:47:48;;;;;;;;;;;;;;;9.20;75.93;100716.00;6153255;23;832;-77
2022/10/09 05:50:14;;;;;;;;;;;;;;;9.16;75.88;100711.25;6154247;23;884;-77
2022/10/09 05:52:41;;;;;;;;;;;;;;;9.16;75.85;100714.75;6152275;23;844;-77
2022/10/09 05:55:07;;;;;;;;;;;;;;;9.14;76.10;100713.31;6126196;23;824;-77
2022/10/09 05:57:34;;;;;;;;;;;;;;;9.15;75.86;100704.19;6152013;23;856;-77
2022/10/09 06:00:00;;;;;;;;;;;;;;;9.13;75.86;100715.19;6126038;23;1307;-77
2022/10/09 06:02:27;;;;;;;;;;;;;;;9.12;76.04;100710.00;6162313;23;3507;-76
2022/10/09 06:04:54;;;;;;;;;;;;;;;9.11;76.09;100714.53;6164514;23;1058;-77
2022/10/09 06:07:20;;;;;;;;;;;;;;;9.12;75.76;100720.75;6152227;23;956;-77
2022/10/09 06:09:47;;;;;;;;;;;;;;;9.12;75.76;100721.59;6153103;23;804;-77
2022/10/09 06:12:13;;;;;;;;;;;;;;;9.12;75.91;100723.44;6152049;23;990;-77
2022/10/09 06:14:40;;;;;;;;;;;;;;;9.10;75.53;100729.84;6128402;23;1141;-77
2022/10/09 06:17:06;;;;;;;;;;;;;;;9.08;76.09;100731.06;6131107;23;3644;-77
2022/10/09 06:19:33;;;;;;;;;;;;;;;9.09;75.99;100730.88;6123111;23;2079;-77
2022/10/09 06:22:00;;;;;;;;;;;;;;;9.06;75.87;100730.47;6127514;23;1905;-77
2022/10/09 06:24:27;;;;;;;;;;;;;;;9.09;75.50;100727.38;6126990;23;801;-77
2022/10/09 06:26:53;;;;;;;;;;;;;;;9.06;75.60;100727.78;6127313;23;964;-78
2022/10/09 06:29:20;;;;;;;;;;;;;;;9.05;75.95;100726.13;6125127;23;1286;-78
2022/10/09 06:31:46;;;;;;;;;;;;;;;9.06;75.88;100723.25;6125997;23;836;-78
2022/10/09 06:34:13;;;;;;;;;;;;;;;9.04;76.05;100727.16;6127450;23;1011;-77
2022/10/09 06:36:39;;;;;;;;;;;;;;;9.03;75.79;100745.16;6123974;23;1314;-78
2022/10/09 06:39:06;;;;;;;;;;;;;;;9.01;75.78;100744.50;6123183;23;1007;-78
2022/10/09 06:41:32;;;;;;;;;;;;;;;9.01;75.70;100754.44;6125284;23;1897;-77
2022/10/09 06:43:59;;;;;;;;;;;;;;;9.00;75.58;100753.63;6122970;23;1031;-78
2022/10/09 06:46:25;;;;;;;;;;;;;;;9.01;75.65;100751.75;6124004;23;996;-78
2022/10/09 06:48:52;;;;;;;;;;;;;;;9.02;75.74;100762.28;6124066;23;1011;-77
2022/10/09 06:51:19;;;;;;;;;;;;;;;8.98;75.92;100765.59;6123745;23;1140;-78
2022/10/09 06:53:45;;;;;;;;;;;;;;;8.97;75.88;100774.66;6122110;23;1517;-78
2022/10/09 06:56:12;;;;;;;;;;;;;;;8.97;75.98;100762.09;6123728;23;995;-78
2022/10/09 06:58:38;;;;;;;;;;;;;;;8.99;75.84;100773.44;6124775;23;837;-78
2022/10/09 07:01:05;;;;;;;;;;;;;;;8.98;76.06;100773.66;6122517;23;944;-78
2022/10/09 07:03:31;;;;;;;;;;;;;;;8.97;75.96;100774.66;6123502;23;1971;-78
2022/10/09 07:05:58;;;;;;;;;;;;;;;8.95;75.88;100774.88;6123095;23;999;-78
2022/10/09 07:08:24;;;;;;;;;;;;;;;8.98;75.78;100770.97;6123653;23;1152;-77
2022/10/09 07:10:51;;;;;;;;;;;;;;;8.95;75.63;100768.69;6125075;23;987;-78
2022/10/09 07:13:17;;;;;;;;;;;;;;;8.94;75.72;100775.94;6124309;23;991;-78
2022/10/09 07:15:44;;;;;;;;;;;;;;;8.96;75.55;100778.38;6122232;23;999;-78
2022/10/09 07:18:10;;;;;;;;;;;;;;;8.94;75.58;100780.44;6121198;23;948;-78
2022/10/09 07:20:37;;;;;;;;;;;;;;;8.92;75.74;100785.22;6147583;23;1233;-78
2022/10/09 07:23:04;;;;;;;;;;;;;;;8.93;75.78;100779.63;6149511;23;1933;-78
2022/10/09 07:25:30;;;;;;;;;;;;;;;8.91;75.72;100781.66;6149879;23;1015;-78
2022/10/09 07:27:57;;;;;;;;;;;;;;;8.92;75.60;100775.28;6124554;23;1183;-78
2022/10/09 07:30:23;;;;;;;;;;;;;;;8.91;75.53;100780.84;6150846;23;983;-78
2022/10/09 07:32:50;;;;;;;;;;;;;;;8.89;75.76;100782.94;6125071;23;1015;-78
2022/10/09 07:35:16;;;;;;;;;;;;;;;8.89;75.81;100793.69;6151496;23;960;-78
2022/10/09 07:37:43;;;;;;;;;;;;;;;8.89;75.45;100785.63;6152458;23;1603;-78
2022/10/09 07:40:10;;;;;;;;;;;;;;;8.87;75.65;100800.06;6152527;23;865;-78
2022/10/09 07:42:36;;;;;;;;;;;;;;;8.87;75.84;100799.22;6152384;23;1901;-78
2022/10/09 07:45:03;;;;;;;;;;;;;;;8.89;75.61;100804.41;6127587;23;943;-78
2022/10/09 07:47:29;;;;;;;;;;;;;;;8.91;75.41;100795.09;6125134;23;1262;-78
2022/10/09 07:49:56;;;;;;;;;;;;;;;8.86;75.47;100787.66;6150682;23;1026;-78
2022/10/09 07:52:22;;;;;;;;;;;;;;;8.85;75.78;100783.34;6150202;23;959;-78
2022/10/09 07:54:49;;;;;;;;;;;;;;;8.85;75.77;100788.72;6152135;23;993;-77
2022/10/09 07:57:15;;;;;;;;;;;;;;;8.85;75.60;100782.47;6151755;23;995;-78
2022/10/09 07:59:42;;;;;;;;;;;;;;;8.85;75.96;100780.66;6150449;23;971;-78
2022/10/09 08:02:08;;;;;;;;;;;;;;;8.85;75.70;100779.81;6152371;23;1901;-78
2022/10/09 08:04:35;;;;;;;;;;;;;;;8.85;75.41;100790.53;6153792;23;816;-78
2022/10/09 08:07:02;;;;;;;;;;;;;;;8.85;75.76;100783.34;6127033;23;1165;-78
2022/10/09 08:09:28;;;;;;;;;;;;;;;8.84;75.69;100796.97;6153653;23;958;-78
2022/10/09 08:11:55;;;;;;;;;;;;;;;8.83;75.69;100788.06;6154069;23;974;-78
2022/10/09 08:14:21;;;;;;;;;;;;;;;8.84;75.75;100788.91;6125096;23;1216;-78
2022/10/09 08:16:48;;;;;;;;;;;;;;;8.85;75.51;100802.16;6150106;23;835;-78
2022/10/09 08:19:14;;;;;;;;;;;;;;;8.85;75.51;100803.97;6124738;23;1138;-78
2022/10/09 08:21:41;;;;;;;;;;;;;;;8.85;75.41;100801.28;6128468;23;1944;-78
2022/10/09 08:24:07;;;;;;;;;;;;;;;8.84;75.51;100805.00;6153943;23;1002;-78
2022/10/09 08:26:34;;;;;;;;;;;;;;;8.84;75.47;100810.38;6129247;23;1177;-78
2022/10/09 08:29:00;;;;;;;;;;;;;;;8.81;75.55;100806.25;6155268;23;990;-78
2022/10/09 08:31:27;;;;;;;;;;;;;;;8.82;75.40;100807.06;6153304;23;1017;-76
2022/10/09 08:33:53;;;;;;;;;;;;;;;8.81;75.82;100814.28;6129438;23;1157;-78
2022/10/09 08:36:20;;;;;;;;;;;;;;;8.81;75.87;100814.28;6128567;23;1002;-78
2022/10/09 08:38:47;;;;;;;;;;;;;;;8.82;75.44;100810.59;6154090;23;1300;-78
2022/10/09 08:41:13;;;;;;;;;;;;;;;8.82;75.85;100813.28;6153799;23;851;-78
2022/10/09 08:43:40;;;;;;;;;;;;;;;8.82;75.67;100818.66;6152653;23;1932;-78
2022/10/09 08:46:06;;;;;;;;;;;;;;;8.84;75.58;100810.38;6155339;23;982;-78
2022/10/09 08:48:33;;;;;;;;;;;;;;;8.83;75.74;100812.25;6129052;23;1223;-78
2022/10/09 08:50:59;;;;;;;;;;;;;;;8.83;75.51;100812.25;6154051;23;951;-78
2022/10/09 08:53:26;;;;;;;;;;;;;;;8.85;75.49;100806.66;6128153;23;1263;-78
2022/10/09 08:55:52;;;;;;;;;;;;;;;8.85;75.51;100809.34;6154997;23;983;-78
2022/10/09 08:58:19;;;;;;;;;;;;;;;8.85;75.76;100814.72;6153592;23;1006;-78
2022/10/09 09:00:45;;;;;;;;;;;;;;;8.85;75.38;100822.78;6154209;23;959;-78
2022/10/09 09:03:12;;;;;;;;;;;;;;;8.85;75.66;100818.25;6154021;23;1948;-78
2022/10/09 09:05:38;;;;;;;;;;;;;;;8.84;75.57;100818.44;6152038;23;927;-78
2022/10/09 09:08:05;;;;;;;;;;;;;;;8.85;75.60;100815.56;6127656;23;1160;-78
2022/10/09 09:10:31;;;;;;;;;;;;;;;8.85;75.66;100814.72;6152984;23;983;-78
2022/10/09 09:12:58;;;;;;;;;;;;;;;8.87;75.69;100804.59;6154077;23;1050;-78
2022/10/09 09:15:25;;;;;;;;;;;;;;;8.88;75.63;100806.25;6155125;23;951;-78
2022/10/09 09:17:51;;;;;;;;;;;;;;;8.87;75.70;100808.13;6153902;23;963;-78
2022/10/09 09:20:18;;;;;;;;;;;;;;;8.85;75.71;100804.81;6154754;23;1007;-79
2022/10/09 09:22:44;;;;;;;;;;;;;;;8.88;75.46;100798.19;6153360;23;1949;-78
2022/10/09 09:25:12;;;;;;;;;;;;;;;8.87;75.71;100800.06;6153096;23;1022;-78
2022/10/09 09:27:38;;;;;;;;;;;;;;;8.89;75.74;100801.72;6153386;23;990;-78
2022/10/09 09:30:05;;;;;;;;;;;;;;;8.89;75.73;100794.50;6154370;23;990;-78
2022/10/09 09:32:31;;;;;;;;;;;;;;;8.88;75.68;100800.88;6127991;23;994;-78
2022/10/09 09:34:58;;;;;;;;;;;;;;;8.89;75.58;100794.50;6154349;23;894;-78
2022/10/09 09:37:24;;;;;;;;;;;;;;;8.90;75.74;100796.16;6152663;23;1045;-78
2022/10/09 09:39:51;;;;;;;;;;;;;;;8.88;75.53;100798.19;6156524;23;1239;-78
2022/10/09 09:42:18;;;;;;;;;;;;;;;8.90;75.91;100806.88;6144641;23;1897;-78
2022/10/09 09:44:44;;;;;;;;;;;;;;;8.90;75.88;100812.25;6126582;23;967;-78
2022/10/09 09:47:11;;;;;;;;;;;;;;;8.91;75.78;100813.91;6153462;23;983;-78
2022/10/09 09:49:37;;;;;;;;;;;;;;;8.91;75.74;100808.53;6151404;23;966;-78
2022/10/09 09:52:04;;;;;;;;;;;;;;;8.92;75.77;100815.59;6153992;23;958;-78
2022/10/09 09:54:30;;;;;;;;;;;;;;;8.93;75.50;100803.78;6153230;23;1037;-78
2022/10/09 09:56:57;;;;;;;;;;;;;;;8.93;75.80;100801.09;6127332;23;1355;-78
2022/10/09 09:59:23;;;;;;;;;;;;;;;8.94;75.65;100799.25;6154422;23;971;-79
2022/10/09 10:01:50;;;;;;;;;;;;;;;8.95;75.90;100799.06;6153195;23;1002;-78
2022/10/09 10:04:16;;;;;;;;;;;;;;;8.95;75.54;100799.06;6153024;23;1954;-78
2022/10/09 10:06:43;;;;;;;;;;;;;;;8.96;75.68;100798.03;6126479;23;947;-78
2022/10/09 10:09:09;;;;;;;;;;;;;;;8.96;75.82;100811.44;6126730;23;1292;-78
2022/10/09 10:11:36;;;;;;;;;;;;;;;8.97;75.82;100801.53;6153805;23;947;-78
2022/10/09 10:14:03;;;;;;;;;;;;;;;8.97;75.79;100805.06;6154445;23;1212;-78
2022/10/09 10:16:29;;;;;;;;;;;;;;;8.98;75.59;100795.97;6153844;23;1014;-78
2022/10/09 10:18:56;;;;;;;;;;;;;;;8.99;75.79;100794.09;6130209;23;1026;-78
2022/10/09 10:21:22;;;;;;;;;;;;;;;9.00;75.71;100785.84;6155706;23;990;-78
2022/10/09 10:23:49;;;;;;;;;;;;;;;9.01;75.45;100779.44;6155370;23;1936;-78
2022/10/09 10:26:15;;;;;;;;;;;;;;;9.01;75.73;100786.69;6127413;23;920;-78
2022/10/09 10:28:42;;;;;;;;;;;;;;;9.02;75.67;100783.75;6154098;23;1333;-78
2022/10/09 10:31:08;;;;;;;;;;;;;;;9.05;75.87;100782.53;6128691;23;974;-78
2022/10/09 10:33:35;;;;;;;;;;;;;;;9.05;75.58;100790.59;6130366;23;1406;-78
2022/10/09 10:36:01;;;;;;;;;;;;;;;9.05;75.83;100796.78;6154663;23;1017;-78
2022/10/09 10:38:28;;;;;;;;;;;;;;;9.05;75.63;100785.22;6122581;23;1281;-78
2022/10/09 10:40:55;;;;;;;;;;;;;;;9.06;75.90;100785.03;6124323;23;982;-78
2022/10/09 10:43:21;;;;;;;;;;;;;;;9.13;75.48;100793.09;6124625;23;1939;-78
2022/10/09 10:45:48;;;;;;;;;;;;;;;9.09;75.67;100779.25;6125606;23;1037;-78
2022/10/09 10:48:14;;;;;;;;;;;;;;;9.09;75.66;100789.19;6125076;23;983;-78
2022/10/09 10:50:44;;;;;;;;;;;;;;;9.09;75.84;100778.44;6126161;23;1281;-78
2022/10/09 10:53:10;;;;;;;;;;;;;;;9.08;75.83;100776.75;6127286;23;835;-78
2022/10/09 10:55:37;;;;;;;;;;;;;;;9.10;75.69;100783.59;6128179;23;974;-78
2022/10/09 10:58:03;;;;;;;;;;;;;;;9.12;75.89;100771.78;6128535;23;1007;-78
2022/10/09 11:00:30;;;;;;;;;;;;;;;9.13;75.88;100766.22;6127152;23;1246;-78
2022/10/09 11:02:57;;;;;;;;;;;;;;;9.15;75.95;100777.59;6129732;23;1893;-78
2022/10/09 11:05:25;;;;;;;;;;;;;;;9.20;75.43;100771.59;6122775;23;1306;-78
2022/10/09 11:07:52;;;;;;;;;;;;;;;9.26;75.43;100774.28;6122788;23;927;-78
2022/10/09 11:10:18;;;;;;;;;;;;;;;9.20;75.76;100774.28;6125312;23;1019;-78
2022/10/09 11:12:45;;;;;;;;;;;;;;;9.19;75.87;100772.66;6124062;23;1003;-78
2022/10/09 11:15:12;;;;;;;;;;;;;;;9.20;75.64;100775.13;6125388;23;955;-79
2022/10/09 11:17:38;;;;;;;;;;;;;;;9.20;75.90;100767.03;6126767;23;818;-78
2022/10/09 11:20:05;;;;;;;;;;;;;;;9.23;75.65;100760.44;6125633;23;970;-78
2022/10/09 11:22:32;;;;;;;;;;;;;;;9.21;75.97;100755.28;6122247;23;1901;-78
2022/10/09 11:24:58;;;;;;;;;;;;;;;9.20;75.79;100764.38;6123819;23;993;-78
2022/10/09 11:27:25;;;;;;;;;;;;;;;9.22;76.02;100756.94;6125879;23;1293;-78
2022/10/09 11:29:51;;;;;;;;;;;;;;;9.26;75.70;100743.91;6124754;23;1142;-78
2022/10/09 11:32:18;;;;;;;;;;;;;;;9.29;75.52;100746.19;6125900;23;987;-78
2022/10/09 11:34:45;;;;;;;;;;;;;;;9.31;75.57;100753.00;6123890;23;884;-78
2022/10/09 11:37:11;;;;;;;;;;;;;;;9.30;75.64;100759.44;6124937;23;991;-78
2022/10/09 11:39:38;;;;;;;;;;;;;;;9.30;75.66;100755.91;6145926;23;1687;-78
2022/10/09 11:42:04;;;;;;;;;;;;;;;9.28;75.82;100761.47;6128376;23;1257;-78
2022/10/09 11:44:31;;;;;;;;;;;;;;;9.29;76.01;100765.00;6150642;23;2034;-78
2022/10/09 11:46:57;;;;;;;;;;;;;;;9.29;76.12;100771.22;6155371;23;843;-78
2022/10/09 11:49:24;;;;;;;;;;;;;;;9.30;75.94;100774.72;6154819;23;931;-78
2022/10/09 11:51:50;;;;;;;;;;;;;;;9.30;76.01;100762.09;6127816;23;1250;-78
2022/10/09 11:54:17;;;;;;;;;;;;;;;9.32;75.91;100773.50;6128015;23;982;-78
2022/10/09 11:56:43;;;;;;;;;;;;;;;9.36;75.93;100763.16;6129634;23;1193;-78
2022/10/09 11:59:10;;;;;;;;;;;;;;;9.35;75.94;100766.03;6128014;23;1006;-78
2022/10/09 12:01:37;;;;;;;;;;;;;;;9.35;76.24;100769.53;6153857;23;982;-78
2022/10/09 12:04:03;;;;;;;;;;;;;;;9.36;76.03;100773.06;6154765;23;1938;-78
2022/10/09 12:06:30;;;;;;;;;;;;;;;9.45;75.88;100783.41;6154331;23;966;-78
2022/10/09 12:08:56;;;;;;;;;;;;;;;9.40;76.08;100777.81;6154056;23;1348;-78
2022/10/09 12:11:23;;;;;;;;;;;;;;;9.39;76.19;100770.81;6125776;23;1250;-78
2022/10/09 12:13:49;;;;;;;;;;;;;;;9.47;76.12;100775.97;6128036;23;1312;-78
2022/10/09 12:16:16;;;;;;;;;;;;;;;9.46;75.85;100763.56;6155353;23;987;-78
2022/10/09 12:18:42;;;;;;;;;;;;;;;9.44;75.97;100775.53;6155155;23;990;-78
2022/10/09 12:21:09;;;;;;;;;;;;;;;9.54;75.83;100773.28;6128431;23;1010;-78
2022/10/09 12:23:35;;;;;;;;;;;;;;;9.47;75.91;100767.91;6127758;23;1943;-78
2022/10/09 12:26:02;;;;;;;;;;;;;;;9.51;76.08;100773.69;6149647;23;1005;-79
2022/10/09 12:28:28;;;;;;;;;;;;;;;9.55;76.07;100767.69;6153573;23;900;-78
2022/10/09 12:30:55;;;;;;;;;;;;;;;9.54;75.88;100770.59;6127477;23;967;-78
2022/10/09 12:33:21;;;;;;;;;;;;;;;9.58;75.94;100763.75;6125214;23;1303;-78
2022/10/09 12:35:48;;;;;;;;;;;;;;;9.55;76.01;100765.00;6154565;23;844;-78
2022/10/09 12:38:15;;;;;;;;;;;;;;;9.50;76.15;100761.25;6153449;23;1138;-78
2022/10/09 12:40:41;;;;;;;;;;;;;;;9.62;75.85;100762.31;6130387;23;1452;-78
2022/10/09 12:43:08;;;;;;;;;;;;;;;9.59;75.96;100760.06;6155481;23;1937;-78
2022/10/09 12:45:34;;;;;;;;;;;;;;;9.54;76.17;100752.59;6154282;23;852;-78
2022/10/09 12:48:01;;;;;;;;;;;;;;;9.53;76.21;100759.00;6155706;23;962;-78
2022/10/09 12:50:27;;;;;;;;;;;;;;;9.56;76.13;100755.09;6156351;23;821;-78
2022/10/09 12:52:54;;;;;;;;;;;;;;;9.56;76.12;100757.78;6156232;23;947;-78
2022/10/09 12:55:20;;;;;;;;;;;;;;;9.58;76.53;100750.31;6154914;23;809;-78